Airfield :
LOGIN :

Register | Disclaimer

   EN    FR    IT 

 










Legend :    VFR   Marginal VFR   IFR   Intensive IFR   Very Intensive IFR
Visi :
Ceiling :
>= 8 km
>= 3000ft
5 to 8 km
1000 to 3000 ft
1500m to 5 km
500 to 1000 ft
800 to 1500m
200 to 500 ft
< 800m
< 200 ft
Symbols :   Thunderstorms  Fog  Heavy snow  Heavy precipitations  Wind > 20 kt
SIGMETs :     Misc.  Thunderstorms  Icing  Turbulence  Mountain Waves  Volcanic Ashes






- Airport Elevation : 156 ft
- IATA code : OMO


LQMO - Mostar

METAR N/A
TAF TAF LQMO
Valid from the 29 at 12:00 until the 30 at 12:00 UTC


291100Z 2912/3012 02007KT 9999 FEW040 SCT070 TX25/2912Z TN14/3003Z
PROB40
TEMPO 2912/2917 32015KT 5000 SHRA FEW030TCU SCT040
PROB30
TEMPO 2912/2915 VRB15KT 3000 TSRA FEW030CB SCT040
PROB40
TEMPO 3009/3012 24015KT 3000 TSRA FEW030CB SCT040



MET'MAP, your aeronautical weather chart ! - Copyright ORBIFLY December 2007 - Disclaimer

ORBIFLY MET'MAP TEAM :

Programming & Development : Alexandra Zaïnal
Concept & original design : Baudouin d'Aumeries
Assistance for programming : Marc-Olivier Méhu
Technical & hardware support : Manuel Goepfert

Contact : metmap@orbifly.com




SOURCES & CREDITS :

   NOAA